Time;durP1;ratioP1;P1;durP2;ratioP2;P2;SDS_P1;SDS_P2;PMS_P1;PMS_P2;Temp;Humidity;BMP_temperature;BMP_pressure;BME280_temperature;BME280_humidity;BME280_pressure;Samples;Min_cycle;Max_cycle;Signal;HPM_P1;HPM_P2
2021/01/11 00:03:56;;;;;;;2.20;1.53;;;;;;;-5.19;100.00;99805.98;3796219;77;457611;-75
2021/01/11 00:09:17;;;;;;;4.37;3.97;;;;;;;-5.07;100.00;99801.59;3795920;77;457583;-75
2021/01/11 00:14:38;;;;;;;4.20;3.13;;;;;;;-4.93;100.00;99806.05;3795939;77;481465;-75
2021/01/11 00:19:59;;;;;;;2.43;2.23;;;;;;;-4.97;100.00;99810.36;3796160;77;457578;-75
2021/01/11 00:25:20;;;;;;;9.40;2.33;;;;;;;-4.98;100.00;99824.84;3796509;77;457630;-75
2021/01/11 00:30:42;;;;;;;4.23;1.57;;;;;;;-5.04;100.00;99821.95;3796707;77;457543;-75
2021/01/11 00:36:03;;;;;;;3.37;1.03;;;;;;;-5.17;100.00;99837.32;3796086;77;457586;-75
2021/01/11 00:41:24;;;;;;;1.43;1.33;;;;;;;-5.37;100.00;99842.05;3793191;77;456601;-75
2021/01/11 00:46:47;;;;;;;1.73;1.60;;;;;;;-5.51;100.00;99837.84;3795941;77;455551;-75
2021/01/11 00:52:08;;;;;;;1.27;1.17;;;;;;;-5.57;100.00;99829.30;3796442;77;457823;-75
2021/01/11 00:57:30;;;;;;;3.47;2.10;;;;;;;-5.30;100.00;99836.62;3795311;77;479370;-75
2021/01/11 01:02:51;;;;;;;4.50;1.40;;;;;;;-5.48;100.00;99832.45;3796112;77;481462;-75
2021/01/11 01:08:12;;;;;;;2.30;2.10;;;;;;;-5.43;100.00;99830.55;3769527;77;456539;-75
2021/01/11 01:13:33;;;;;;;1.10;1.00;;;;;;;-5.58;100.00;99833.06;3796514;77;457584;-75
2021/01/11 01:18:55;;;;;;;2.43;2.27;;;;;;;-5.66;100.00;99822.92;3796554;77;455453;-75
2021/01/11 01:24:16;;;;;;;0.90;0.77;;;;;;;-5.67;100.00;99814.61;3797091;77;457782;-75
2021/01/11 01:29:37;;;;;;;2.27;2.17;;;;;;;-5.58;100.00;99816.98;3796409;77;453444;-75
2021/01/11 01:34:59;;;;;;;1.47;1.37;;;;;;;-5.39;100.00;99822.20;3796841;77;457812;-74
2021/01/11 01:40:20;;;;;;;3.77;3.40;;;;;;;-5.31;100.00;99817.59;3796017;77;457819;-75
2021/01/11 01:45:42;;;;;;;0.80;0.53;;;;;;;-5.36;100.00;99826.20;3797155;77;457586;-75
2021/01/11 01:51:04;;;;;;;0.90;0.60;;;;;;;-5.22;100.00;99821.28;3797062;77;451283;-74
2021/01/11 01:56:27;;;;;;;1.47;1.37;;;;;;;-5.30;100.00;99832.59;3796854;77;451334;-75
2021/01/11 02:01:48;;;;;;;2.30;1.37;;;;;;;-5.25;100.00;99841.14;3795859;77;456773;-74
2021/01/11 02:07:35;;;;;;;2.97;1.90;;;;;;;-5.19;100.00;99838.69;3795669;77;456516;-74
2021/01/11 02:13:19;;;;;;;36.03;4.97;;;;;;;-5.06;100.00;99838.86;3796309;77;457584;-75
2021/01/11 02:18:55;;;;;;;1.10;1.00;;;;;;;-4.89;100.00;99825.84;3796382;77;477321;-74
2021/01/11 02:24:35;;;;;;;0.90;0.73;;;;;;;-4.60;100.00;99821.27;3797348;77;455484;-75
2021/01/11 02:30:19;;;;;;;14.77;2.00;;;;;;;-4.49;100.00;99812.88;3796806;76;475481;-74
2021/01/11 02:35:52;;;;;;;1.10;1.00;;;;;;;-4.48;100.00;99822.50;3797432;77;455484;-75
2021/01/11 02:41:13;;;;;;;6.20;3.40;;;;;;;-4.44;100.00;99826.78;3795752;77;477319;-75
2021/01/11 02:46:36;;;;;;;1.63;1.50;;;;;;;-4.39;100.00;99834.78;3795859;77;457584;-75
2021/01/11 02:52:22;;;;;;;1.20;1.10;;;;;;;-4.37;100.00;99832.62;3796068;77;457551;-74
2021/01/11 02:58:06;;;;;;;2.60;2.40;;;;;;;-4.44;100.00;99821.41;3795982;77;455706;-75
2021/01/11 03:03:28;;;;;;;4.97;2.83;;;;;;;-4.39;100.00;99817.33;3797115;76;457617;-75
2021/01/11 03:08:49;;;;;;;3.67;1.80;;;;;;;-4.32;100.00;99806.48;3795746;77;455547;-74
2021/01/11 03:14:10;;;;;;;1.37;1.00;;;;;;;-4.14;100.00;99805.75;3796613;77;457622;-75
2021/01/11 03:19:32;;;;;;;1.37;1.27;;;;;;;-4.24;100.00;99801.83;3796355;77;453356;-74
2021/01/11 03:24:53;;;;;;;6.97;3.90;;;;;;;-4.18;100.00;99798.55;3795936;77;455511;-75
2021/01/11 03:30:15;;;;;;;1.87;1.60;;;;;;;-3.99;100.00;99780.03;3795766;77;457631;-75
2021/01/11 03:35:36;;;;;;;1.03;0.67;;;;;;;-4.04;100.00;99781.45;3800206;77;383779;-75
2021/01/11 03:41:08;;;;;;;2.60;2.40;;;;;;;-4.17;100.00;99778.66;3796089;77;453404;-75
2021/01/11 03:46:25;;;;;;;1.13;1.03;;;;;;;-4.14;100.00;99777.55;3796954;77;457624;-75
2021/01/11 03:51:47;;;;;;;1.70;1.60;;;;;;;-4.00;100.00;99769.59;3796493;77;455537;-75
2021/01/11 03:57:08;;;;;;;1.73;1.63;;;;;;;-4.11;100.00;99772.13;3796105;77;457623;-75
2021/01/11 04:02:29;;;;;;;8.63;2.47;;;;;;;-4.23;100.00;99756.43;3799805;77;395046;-75
2021/01/11 04:07:50;;;;;;;3.17;1.93;;;;;;;-4.23;100.00;99756.43;3799142;77;392940;-75
2021/01/11 04:13:12;;;;;;;0.80;0.50;;;;;;;-4.29;100.00;99746.05;3797216;77;457623;-75
2021/01/11 04:18:33;;;;;;;1.97;1.10;;;;;;;-4.29;100.00;99746.05;3799351;77;393153;-75
2021/01/11 04:23:55;;;;;;;1.27;1.17;;;;;;;-4.20;100.00;99760.45;3796204;77;456561;-75
2021/01/11 04:29:16;;;;;;;1.73;1.33;;;;;;;-4.18;100.00;99774.38;3799105;77;396108;-75
2021/01/11 04:34:37;;;;;;;2.40;1.47;;;;;;;-4.22;100.00;99779.52;3796567;77;456562;-75
2021/01/11 04:39:58;;;;;;;1.63;1.53;;;;;;;-4.20;100.00;99776.57;3793613;77;456592;-75
2021/01/11 04:45:21;;;;;;;3.77;2.50;;;;;;;-4.07;100.00;99777.20;3796623;77;457858;-75
2021/01/11 04:50:42;;;;;;;4.97;4.57;;;;;;;-4.13;100.00;99778.36;3796135;77;457541;-75
2021/01/11 04:56:05;;;;;;;1.83;1.60;;;;;;;-4.05;100.00;99779.06;3798883;77;396466;-75
2021/01/11 05:01:29;;;;;;;3.00;2.00;;;;;;;-4.16;100.00;99770.30;3799124;77;396296;-75
2021/01/11 05:06:52;;;;;;;1.47;1.33;;;;;;;-4.16;100.00;99770.30;3799940;77;383587;-75
2021/01/11 05:12:15;;;;;;;1.20;1.10;;;;;;;-4.08;100.00;99783.66;3799678;77;383586;-75
2021/01/11 05:17:44;;;;;;;1.10;1.00;;;;;;;-4.08;100.00;99783.66;3800284;76;392919;-75
2021/01/11 05:23:13;;;;;;;0.90;0.70;;;;;;;-3.98;100.00;99784.88;3800055;77;383622;-75
2021/01/11 05:28:35;;;;;;;3.67;2.33;;;;;;;-4.01;100.00;99776.05;3798708;77;395269;-74
2021/01/11 05:33:55;;;;;;;1.17;1.00;;;;;;;-4.01;100.00;99776.05;3799962;77;391874;-74
2021/01/11 05:39:20;;;;;;;0.80;0.60;;;;;;;-4.21;100.00;99773.06;3797252;77;455503;-75
2021/01/11 05:44:41;;;;;;;0.80;0.60;;;;;;;-4.25;100.00;99767.20;3798068;76;451319;-75
2021/01/11 05:50:09;;;;;;;1.30;1.20;;;;;;;-4.28;100.00;99769.93;3795957;77;451562;-74
2021/01/11 05:55:32;;;;;;;2.40;2.30;;;;;;;-4.06;100.00;99764.03;3795952;77;479382;-75
2021/01/11 06:00:53;;;;;;;1.20;1.00;;;;;;;-4.07;100.00;99775.86;3796820;77;481501;-75
2021/01/11 06:06:15;;;;;;;1.73;1.63;;;;;;;-4.19;100.00;99765.53;3795653;77;456558;-74
2021/01/11 06:11:37;;;;;;;1.23;1.13;;;;;;;-4.23;100.00;99762.36;3796688;77;456767;-75
2021/01/11 06:17:00;;;;;;;2.53;2.43;;;;;;;-4.33;100.00;99755.23;3796762;76;455741;-75
2021/01/11 06:22:21;;;;;;;0.80;0.60;;;;;;;-4.33;100.00;99755.23;3800419;77;383572;-75
2021/01/11 06:28:05;;;;;;;2.07;1.93;;;;;;;-4.32;100.00;99758.70;3795975;77;451307;-75
2021/01/11 06:33:27;;;;;;;2.70;2.40;;;;;;;-4.44;100.00;99758.32;3797294;76;457579;-75
2021/01/11 06:38:49;;;;;;;0.90;0.80;;;;;;;-4.52;100.00;99753.02;3796993;77;457562;-74
2021/01/11 06:44:10;;;;;;;5.13;1.43;;;;;;;-4.75;100.00;99766.41;3796330;77;451328;-75
2021/01/11 06:49:33;;;;;;;3.30;3.07;;;;;;;-4.83;100.00;99776.42;3796074;77;456515;-75
2021/01/11 06:54:55;;;;;;;4.70;4.30;;;;;;;-4.84;100.00;99778.84;3795741;77;457668;-75
2021/01/11 07:00:21;;;;;;;2.80;2.60;;;;;;;-4.90;100.00;99778.63;3796105;77;457591;-75
2021/01/11 07:05:47;;;;;;;5.50;2.00;;;;;;;-4.90;100.00;99779.98;3796156;77;457895;-75
2021/01/11 07:11:06;;;;;;;4.67;2.73;;;;;;;-4.74;100.00;99795.41;3796637;76;457586;-74
2021/01/11 07:16:42;;;;;;;1.70;0.83;;;;;;;-4.80;100.00;99801.88;3796624;77;457588;-75
2021/01/11 07:22:05;;;;;;;1.67;1.57;;;;;;;-4.88;100.00;99790.41;3796496;77;456532;-75
2021/01/11 07:27:26;;;;;;;8.63;1.80;;;;;;;-4.84;100.00;99799.52;3797183;76;457617;-75
2021/01/11 07:32:47;;;;;;;1.97;1.83;;;;;;;-4.81;100.00;99795.72;3795693;77;457599;-75
2021/01/11 07:38:14;;;;;;;5.13;2.20;;;;;;;-4.67;100.00;99792.63;3795974;77;457835;-75
2021/01/11 07:43:35;;;;;;;1.13;0.90;;;;;;;-4.79;100.00;99787.38;3796622;77;457567;-75
2021/01/11 07:49:00;;;;;;;1.03;0.87;;;;;;;-4.86;100.00;99794.44;3796871;77;455752;-74
2021/01/11 07:54:23;;;;;;;11.90;2.00;;;;;;;-4.77;100.00;99796.78;3796767;76;457602;-75
2021/01/11 07:59:45;;;;;;;2.00;1.80;;;;;;;-4.93;100.00;99796.66;3795509;77;454490;-75
2021/01/11 08:05:08;;;;;;;1.77;1.47;;;;;;;-4.98;100.00;99800.70;3796522;77;457587;-75
2021/01/11 08:10:29;;;;;;;0.80;0.70;;;;;;;-4.87;100.00;99802.23;3797785;77;457822;-75
2021/01/11 08:15:55;;;;;;;2.60;2.37;;;;;;;-4.78;100.00;99809.11;3796186;77;451318;-75
2021/01/11 08:21:19;;;;;;;0.80;0.60;;;;;;;-4.64;100.00;99805.50;3796392;77;481494;-75
2021/01/11 08:26:45;;;;;;;10.90;2.20;;;;;;;-4.59;100.00;99801.41;3796658;77;451279;-75
2021/01/11 08:32:12;;;;;;;1.13;1.00;;;;;;;-4.42;100.00;99807.14;3797424;76;481971;-75
2021/01/11 08:37:34;;;;;;;0.97;0.80;;;;;;;-4.34;100.00;99801.14;3797073;77;457559;-75
2021/01/11 08:42:55;;;;;;;1.83;1.70;;;;;;;-4.18;100.00;99802.05;3796147;77;453334;-74
2021/01/11 08:48:17;;;;;;;1.17;0.90;;;;;;;-4.09;100.00;99798.98;3796107;77;481522;-75
2021/01/11 08:53:41;;;;;;;1.40;1.30;;;;;;;-4.06;100.00;99796.27;3796753;77;453465;-75
2021/01/11 08:59:01;;;;;;;1.77;1.53;;;;;;;-4.07;100.00;99794.66;3795927;77;457515;-74
2021/01/11 09:04:37;;;;;;;1.03;0.93;;;;;;;-4.23;100.00;99791.91;3796030;77;456814;-75
2021/01/11 09:09:59;;;;;;;1.10;1.00;;;;;;;-4.26;100.00;99793.80;3796142;77;479430;-75
2021/01/11 09:15:30;;;;;;;1.10;0.70;;;;;;;-4.15;100.00;99781.31;3796485;77;479422;-75
2021/01/11 09:20:52;;;;;;;1.13;1.03;;;;;;;-3.94;100.00;99796.91;3796967;77;453374;-76
2021/01/11 09:26:13;;;;;;;3.77;1.20;;;;;;;-3.99;100.00;99821.69;3796048;77;479371;-75
2021/01/11 09:31:35;;;;;;;1.13;1.03;;;;;;;-3.96;100.00;99827.05;3796618;77;456550;-75
2021/01/11 09:36:56;;;;;;;0.83;0.60;;;;;;;-3.86;100.00;99830.41;3797351;77;455454;-75
2021/01/11 09:42:17;;;;;;;2.13;2.03;;;;;;;-3.83;100.00;99831.97;3796204;77;451672;-75
2021/01/11 09:47:39;;;;;;;4.50;2.97;;;;;;;-3.93;100.00;99840.16;3796100;77;457624;-75
2021/01/11 09:53:05;;;;;;;3.07;2.77;;;;;;;-3.89;100.00;99831.79;3795669;77;457562;-75
2021/01/11 09:58:26;;;;;;;7.07;1.87;;;;;;;-3.97;100.00;99834.85;3796035;77;457586;-75
2021/01/11 10:03:48;;;;;;;4.53;3.07;;;;;;;-3.85;100.00;99823.95;3795851;77;457643;-75
2021/01/11 10:09:18;;;;;;;3.17;2.63;;;;;;;-4.00;100.00;99820.63;3795699;77;481458;-75
2021/01/11 10:14:39;;;;;;;1.30;0.70;;;;;;;-4.15;100.00;99818.13;3796203;77;457611;-75
2021/01/11 10:20:00;;;;;;;1.20;1.10;;;;;;;-4.12;100.00;99827.76;3796521;77;453488;-75
2021/01/11 10:25:23;;;;;;;2.17;2.03;;;;;;;-3.95;100.00;99834.26;3795793;77;455552;-75
2021/01/11 10:30:44;;;;;;;2.10;2.00;;;;;;;-4.01;100.00;99843.22;3796620;76;481485;-75
2021/01/11 10:36:06;;;;;;;1.93;1.83;;;;;;;-4.16;100.00;99825.92;3795967;77;457595;-74
2021/01/11 10:41:27;;;;;;;6.00;2.30;;;;;;;-3.89;100.00;99817.53;3795948;77;457781;-74
2021/01/11 10:46:49;;;;;;;2.17;2.00;;;;;;;-3.65;100.00;99816.95;3795819;77;457592;-74
2021/01/11 10:52:10;;;;;;;20.43;2.07;;;;;;;-3.57;100.00;99816.30;3796197;77;457618;-74
2021/01/11 10:57:31;;;;;;;6.63;2.20;;;;;;;-3.62;100.00;99813.14;3796438;77;455664;-74
2021/01/11 11:02:52;;;;;;;2.70;1.50;;;;;;;-3.49;100.00;99804.38;3795329;77;481470;-75
2021/01/11 11:08:13;;;;;;;0.80;0.50;;;;;;;-3.34;100.00;99796.08;3797074;77;457597;-75
2021/01/11 11:13:34;;;;;;;0.90;0.80;;;;;;;-3.28;100.00;99791.42;3800202;77;387759;-75
2021/01/11 11:18:55;;;;;;;6.13;3.27;;;;;;;-3.35;100.00;99791.78;3796083;77;455469;-75
2021/01/11 11:24:17;;;;;;;1.40;1.30;;;;;;;-3.38;100.00;99754.70;3795816;77;481501;-75
2021/01/11 11:29:39;;;;;;;6.40;1.73;;;;;;;-3.38;100.00;99754.70;3799261;77;395278;-75
2021/01/11 11:35:00;;;;;;;4.33;3.20;;;;;;;-3.15;100.00;99762.67;3796268;77;457812;-75
2021/01/11 11:40:21;;;;;;;2.27;2.17;;;;;;;-2.88;100.00;99752.01;3795500;77;481748;-75
2021/01/11 11:45:43;;;;;;;3.47;2.30;;;;;;;-2.97;100.00;99744.88;3798743;77;396064;-75
2021/01/11 11:51:04;;;;;;;2.60;2.40;;;;;;;-2.80;100.00;99752.67;3798874;77;396300;-75
2021/01/11 11:56:26;;;;;;;1.20;1.10;;;;;;;-2.84;100.00;99733.37;3799669;77;391913;-75
2021/01/11 12:01:47;;;;;;;4.07;1.83;;;;;;;-2.83;100.00;99727.67;3798992;77;396321;-75
2021/01/11 12:07:08;;;;;;;4.00;3.13;;;;;;;-2.80;100.00;99708.78;3799165;77;396122;-75
2021/01/11 12:12:30;;;;;;;2.80;1.50;;;;;;;-2.75;100.00;99705.45;3798621;77;396093;-75
2021/01/11 12:17:51;;;;;;;1.23;1.10;;;;;;;-3.02;100.00;99692.51;3796183;77;456845;-75
2021/01/11 12:23:17;;;;;;;2.90;2.70;;;;;;;-3.02;100.00;99692.51;3799491;77;396072;-75
2021/01/11 12:28:38;;;;;;;6.57;2.40;;;;;;;-2.79;100.00;99663.27;3772499;77;385609;-75
2021/01/11 12:33:59;;;;;;;2.30;2.00;;;;;;;-2.79;100.00;99663.27;3799000;77;396352;-75
2021/01/11 12:39:20;;;;;;;7.70;1.63;;;;;;;-2.81;100.00;99654.16;3799500;77;395078;-75
2021/01/11 12:44:42;;;;;;;1.87;1.77;;;;;;;-2.44;100.00;99649.11;3798608;77;396140;-75
2021/01/11 12:50:04;;;;;;;2.30;2.20;;;;;;;-2.31;100.00;99645.84;3798980;77;396458;-75
2021/01/11 12:55:26;;;;;;;3.13;2.90;;;;;;;-2.29;100.00;99638.80;3799373;77;395066;-75
2021/01/11 13:00:47;;;;;;;2.43;1.70;;;;;;;-2.27;100.00;99645.50;3798856;77;396352;-75
2021/01/11 13:06:08;;;;;;;4.50;2.73;;;;;;;-2.18;100.00;99642.31;3798994;77;396104;-75
2021/01/11 13:11:31;;;;;;;2.80;1.70;;;;;;;-2.10;100.00;99620.59;3799155;77;396335;-75
2021/01/11 13:16:53;;;;;;;8.73;4.20;;;;;;;-2.17;100.00;99612.13;3798762;77;396368;-75
2021/01/11 13:22:14;;;;;;;5.10;3.33;;;;;;;-2.12;100.00;99602.05;3799211;77;391852;-75
2021/01/11 13:27:35;;;;;;;2.03;1.80;;;;;;;-2.14;100.00;99601.55;3799024;77;396143;-75
2021/01/11 13:32:56;;;;;;;2.67;2.33;;;;;;;-2.15;100.00;99598.59;3771635;77;396071;-75
2021/01/11 13:38:24;;;;;;;5.03;3.13;;;;;;;-2.09;100.00;99616.23;3799226;77;394030;-75
2021/01/11 13:43:44;;;;;;;1.63;1.30;;;;;;;-2.12;100.00;99612.01;3800536;76;387689;-75
2021/01/11 13:49:05;;;;;;;1.90;1.70;;;;;;;-2.09;100.00;99602.77;3798960;77;396052;-75
2021/01/11 13:54:27;;;;;;;4.50;2.70;;;;;;;-1.92;100.00;99599.42;3798896;77;396076;-75
2021/01/11 13:59:48;;;;;;;4.60;2.93;;;;;;;-1.89;100.00;99593.41;3795551;77;396327;-75
2021/01/11 14:05:11;;;;;;;5.73;4.43;;;;;;;-2.05;100.00;99583.55;3799208;77;396058;-75
2021/01/11 14:10:33;;;;;;;1.97;1.57;;;;;;;-2.07;100.00;99574.97;3798945;77;396079;-75
2021/01/11 14:15:54;;;;;;;15.07;6.00;;;;;;;-1.67;100.00;99580.73;3799322;77;393966;-75
2021/01/11 14:21:16;;;;;;;7.17;3.60;;;;;;;-1.40;100.00;99583.28;3799745;77;393982;-75
2021/01/11 14:26:37;;;;;;;5.77;5.37;;;;;;;-1.29;100.00;99576.49;3799132;77;388871;-75
2021/01/11 14:31:59;;;;;;;5.53;5.03;;;;;;;-1.36;100.00;99569.40;3798547;77;396160;-75
2021/01/11 14:37:20;;;;;;;3.10;1.53;;;;;;;-1.37;100.00;99572.66;3798849;77;396366;-75
2021/01/11 14:42:45;;;;;;;2.60;2.40;;;;;;;-1.33;100.00;99566.09;3798717;77;393950;-75
2021/01/11 14:48:05;;;;;;;7.23;5.10;;;;;;;-1.27;100.00;99559.45;3800239;77;396360;-75
2021/01/11 14:53:27;;;;;;;8.03;7.33;;;;;;;-1.26;100.00;99551.06;3799601;77;396410;-75
2021/01/11 14:58:48;;;;;;;2.27;2.17;;;;;;;-1.22;100.00;99559.33;3799212;77;394171;-75
2021/01/11 15:04:09;;;;;;;1.23;1.13;;;;;;;-1.35;100.00;99558.32;3798967;77;396066;-75
2021/01/11 15:09:30;;;;;;;1.40;1.30;;;;;;;-1.35;100.00;99557.50;3799167;77;396066;-75
2021/01/11 15:14:52;;;;;;;1.97;1.87;;;;;;;-1.30;100.00;99547.94;3798677;77;396307;-76
2021/01/11 15:20:14;;;;;;;2.33;2.07;;;;;;;-1.26;100.00;99551.59;3799285;77;396087;-75
2021/01/11 15:25:36;;;;;;;8.23;4.63;;;;;;;-1.39;100.00;99553.84;3799161;77;396149;-75
2021/01/11 15:30:56;;;;;;;7.27;4.13;;;;;;;-1.33;100.00;99547.20;3799677;77;396084;-75
2021/01/11 15:36:26;;;;;;;1.43;1.10;;;;;;;-1.47;100.00;99547.29;3799135;77;391923;-76
2021/01/11 15:41:47;;;;;;;6.40;1.40;;;;;;;-1.42;100.00;99546.36;3799084;77;394999;-76
2021/01/11 15:47:09;;;;;;;1.63;1.53;;;;;;;-1.54;100.00;99535.37;3799715;77;387697;-76
2021/01/11 15:52:31;;;;;;;5.63;2.97;;;;;;;-1.43;100.00;99528.58;3799359;77;396199;-76
2021/01/11 15:57:52;;;;;;;2.10;2.00;;;;;;;-1.48;100.00;99524.68;3798966;77;396083;-76
2021/01/11 16:03:13;;;;;;;2.33;2.23;;;;;;;-1.50;100.00;99521.48;3799068;77;396331;-76
2021/01/11 16:08:34;;;;;;;8.40;4.30;;;;;;;-1.68;100.00;99518.45;3799258;77;400301;-76
2021/01/11 16:13:56;;;;;;;3.43;3.23;;;;;;;-1.68;100.00;99500.14;3799333;77;396096;-76
2021/01/11 16:19:17;;;;;;;3.43;3.23;;;;;;;-1.72;100.00;99497.80;3799357;77;396332;-76
2021/01/11 16:24:38;;;;;;;3.60;3.40;;;;;;;-1.64;100.00;99501.91;3799311;77;396124;-76
2021/01/11 16:29:59;;;;;;;3.07;2.77;;;;;;;-1.47;100.00;99512.78;3799052;77;396073;-76
2021/01/11 16:35:20;;;;;;;3.37;3.00;;;;;;;-1.64;100.00;99516.74;3798688;77;396167;-76
2021/01/11 16:40:41;;;;;;;2.40;2.20;;;;;;;-1.44;100.00;99514.84;3799190;77;396075;-76
2021/01/11 16:46:02;;;;;;;1.60;1.50;;;;;;;-1.51;100.00;99502.36;3799352;77;395114;-76
2021/01/11 16:51:25;;;;;;;1.03;0.93;;;;;;;-1.58;100.00;99495.84;3799823;77;387762;-76
2021/01/11 16:56:47;;;;;;;7.07;2.77;;;;;;;-1.64;100.00;99490.31;3772170;77;396280;-76
2021/01/11 17:02:09;;;;;;;1.40;1.23;;;;;;;-1.67;100.00;99474.20;3799249;77;396127;-76
2021/01/11 17:07:33;;;;;;;1.90;1.80;;;;;;;-1.70;100.00;99474.84;3772467;77;391898;-76
2021/01/11 17:12:55;;;;;;;9.00;2.50;;;;;;;-1.71;100.00;99479.98;3799291;77;396124;-76
2021/01/11 17:18:16;;;;;;;4.70;4.13;;;;;;;-1.72;100.00;99477.05;3798907;77;396088;-77
2021/01/11 17:23:37;;;;;;;1.63;1.53;;;;;;;-1.75;100.00;99474.95;3799349;77;394037;-76
2021/01/11 17:29:01;;;;;;;6.83;2.50;;;;;;;-1.74;100.00;99473.85;3798887;77;396304;-76
2021/01/11 17:34:23;;;;;;;3.40;3.20;;;;;;;-1.76;100.00;99478.75;3798833;77;396334;-76
2021/01/11 17:39:44;;;;;;;3.57;2.60;;;;;;;-1.70;100.00;99479.42;3798949;77;396068;-77
2021/01/11 17:45:07;;;;;;;4.53;4.10;;;;;;;-1.70;100.00;99474.03;3799086;77;396116;-76
2021/01/11 17:50:29;;;;;;;2.80;2.60;;;;;;;-1.78;100.00;99476.94;3798838;77;396064;-76
2021/01/11 17:55:51;;;;;;;6.50;3.43;;;;;;;-1.81;100.00;99468.65;3798718;77;396130;-76
2021/01/11 18:01:14;;;;;;;1.23;1.13;;;;;;;-1.73;100.00;99466.02;3799299;77;392893;-76
2021/01/11 18:06:36;;;;;;;2.67;2.37;;;;;;;-1.70;100.00;99453.27;3799579;76;396365;-77
2021/01/11 18:11:57;;;;;;;5.93;2.13;;;;;;;-1.72;100.00;99460.05;3799054;77;396172;-77
2021/01/11 18:17:21;;;;;;;14.83;3.47;;;;;;;-1.68;100.00;99451.03;3798648;77;398207;-76
2021/01/11 18:22:42;;;;;;;6.10;2.20;;;;;;;-1.63;100.00;99450.10;3799966;77;393998;-76
2021/01/11 18:28:03;;;;;;;3.10;1.63;;;;;;;-1.61;100.00;99450.02;3799075;77;396061;-76
2021/01/11 18:33:24;;;;;;;2.63;2.43;;;;;;;-1.65;100.00;99438.28;3798944;77;396072;-76
2021/01/11 18:38:45;;;;;;;2.60;2.30;;;;;;;-1.68;100.00;99430.81;3799070;77;395003;-76
2021/01/11 18:44:07;;;;;;;13.17;3.10;;;;;;;-1.62;100.00;99417.45;3798889;77;396319;-76
2021/01/11 18:49:29;;;;;;;6.00;3.40;;;;;;;-1.66;100.00;99405.68;3798760;77;389064;-76
2021/01/11 18:54:50;;;;;;;2.17;1.60;;;;;;;-1.71;100.00;99402.32;3798774;77;396017;-76
2021/01/11 19:00:14;;;;;;;2.10;2.00;;;;;;;-1.70;100.00;99387.20;3798837;77;396064;-76
2021/01/11 19:05:43;;;;;;;4.10;1.90;;;;;;;-1.68;100.00;99386.31;3799125;77;396128;-76
2021/01/11 19:11:04;;;;;;;1.83;1.73;;;;;;;-1.67;100.00;99385.20;3799556;77;395046;-76
2021/01/11 19:16:25;;;;;;;21.93;3.43;;;;;;;-1.61;100.00;99385.30;3799246;77;394057;-76
2021/01/11 19:21:47;;;;;;;4.47;4.27;;;;;;;-1.61;100.00;99393.95;3798840;77;396122;-76
2021/01/11 19:27:08;;;;;;;2.30;2.10;;;;;;;-1.58;100.00;99378.51;3799364;77;396128;-77
2021/01/11 19:32:29;;;;;;;8.73;2.07;;;;;;;-1.49;100.00;99381.46;3799361;77;396167;-77
2021/01/11 19:37:51;;;;;;;4.77;1.93;;;;;;;-1.48;100.00;99377.66;3798647;77;396150;-76
2021/01/11 19:43:12;;;;;;;2.07;1.93;;;;;;;-1.46;100.00;99356.56;3799183;77;396163;-77
2021/01/11 19:48:34;;;;;;;3.63;1.93;;;;;;;-1.39;100.00;99348.80;3798444;77;396269;-77
2021/01/11 19:53:55;;;;;;;1.40;1.30;;;;;;;-1.39;100.00;99336.66;3799101;77;396120;-76
2021/01/11 19:59:16;;;;;;;2.63;2.00;;;;;;;-1.37;100.00;99351.95;3799096;77;395124;-77
2021/01/11 20:04:37;;;;;;;2.87;2.07;;;;;;;-1.37;100.00;99339.81;3798785;77;396056;-76
2021/01/11 20:09:59;;;;;;;3.30;3.13;;;;;;;-1.30;100.00;99343.64;3798773;77;395226;-77
2021/01/11 20:15:21;;;;;;;3.37;2.40;;;;;;;-1.25;100.00;99323.81;3798740;77;391957;-76
2021/01/11 20:20:42;;;;;;;3.03;2.57;;;;;;;-1.26;100.00;99312.77;3798994;77;396354;-76
2021/01/11 20:26:08;;;;;;;2.77;2.67;;;;;;;-1.21;100.00;99313.41;3798516;77;396139;-76
2021/01/11 20:31:30;;;;;;;4.27;2.83;;;;;;;-1.23;100.00;99298.09;3798982;77;396394;-77
2021/01/11 20:36:52;;;;;;;1.47;1.37;;;;;;;-1.27;100.00;99292.29;3799045;77;394213;-77
2021/01/11 20:42:16;;;;;;;4.37;2.87;;;;;;;-1.32;100.00;99285.72;3799140;77;396120;-76
2021/01/11 20:47:37;;;;;;;1.93;1.83;;;;;;;-1.35;100.00;99303.34;3799055;77;393958;-77
2021/01/11 20:52:59;;;;;;;14.13;2.40;;;;;;;-1.36;100.00;99302.28;3799002;77;393978;-77
2021/01/11 20:58:20;;;;;;;1.53;1.43;;;;;;;-1.32;100.00;99281.67;3799944;77;383576;-76
2021/01/11 21:03:41;;;;;;;2.60;1.57;;;;;;;-1.22;100.00;99268.64;3799579;77;390108;-77
2021/01/11 21:09:06;;;;;;;7.33;2.40;;;;;;;-1.19;100.00;99270.72;3799170;77;396154;-77
2021/01/11 21:14:28;;;;;;;7.20;3.03;;;;;;;-1.10;100.00;99268.00;3799031;77;394292;-77
2021/01/11 21:19:50;;;;;;;3.80;2.97;;;;;;;-1.11;100.00;99260.47;3798911;77;396099;-77
2021/01/11 21:25:12;;;;;;;3.80;3.50;;;;;;;-1.02;100.00;99251.81;3799017;77;396098;-77
2021/01/11 21:30:33;;;;;;;10.13;3.33;;;;;;;-1.04;100.00;99247.28;3799626;77;391856;-76
2021/01/11 21:35:54;;;;;;;1.73;1.63;;;;;;;-0.99;100.00;99240.93;3799459;77;387995;-77
2021/01/11 21:41:18;;;;;;;15.70;2.10;;;;;;;-0.99;100.00;99222.03;3798914;77;398155;-77
2021/01/11 21:46:40;;;;;;;1.83;1.73;;;;;;;-0.97;100.00;99227.91;3800482;77;387971;-76
2021/01/11 21:52:01;;;;;;;1.50;1.40;;;;;;;-0.88;100.00;99220.56;3799378;77;396085;-76
2021/01/11 21:57:26;;;;;;;1.47;1.37;;;;;;;-0.90;100.00;99210.66;3799097;77;396084;-76
2021/01/11 22:02:47;;;;;;;3.80;1.43;;;;;;;-0.88;100.00;99201.12;3799365;77;394983;-76
2021/01/11 22:08:09;;;;;;;1.67;1.00;;;;;;;-0.85;100.00;99213.17;3799371;77;389187;-76
2021/01/11 22:13:29;;;;;;;1.83;1.60;;;;;;;-0.83;100.00;99202.85;3799229;77;396089;-76
2021/01/11 22:18:50;;;;;;;3.80;3.50;;;;;;;-0.79;100.00;99208.06;3799147;77;396100;-76
2021/01/11 22:24:12;;;;;;;4.33;2.77;;;;;;;-0.85;100.00;99203.19;3799492;77;391903;-76
2021/01/11 22:29:33;;;;;;;2.10;2.00;;;;;;;-0.82;100.00;99188.24;3798721;77;396357;-76
2021/01/11 22:34:54;;;;;;;1.50;1.40;;;;;;;-0.78;100.00;99182.66;3799414;77;395027;-76
2021/01/11 22:40:16;;;;;;;2.80;2.03;;;;;;;-0.78;100.00;99170.50;3798812;77;396064;-76
2021/01/11 22:45:37;;;;;;;2.97;1.90;;;;;;;-0.78;100.00;99146.77;3799472;77;396154;-76
2021/01/11 22:50:58;;;;;;;1.17;1.07;;;;;;;-0.78;100.00;99142.72;3799615;77;383768;-76
2021/01/11 22:56:26;;;;;;;1.30;1.20;;;;;;;-0.81;100.00;99137.95;3799180;77;392967;-76
2021/01/11 23:01:48;;;;;;;1.83;1.73;;;;;;;-0.81;100.00;99134.47;3800382;77;383571;-76
2021/01/11 23:07:13;;;;;;;1.80;1.53;;;;;;;-0.79;100.00;99123.58;3799252;77;391891;-76
2021/01/11 23:12:34;;;;;;;6.20;3.07;;;;;;;-0.72;100.00;99117.11;3798935;77;394183;-76
2021/01/11 23:17:55;;;;;;;3.20;2.40;;;;;;;-0.64;100.00;99110.30;3798685;77;396140;-76
2021/01/11 23:23:16;;;;;;;9.40;2.10;;;;;;;-0.60;100.00;99110.44;3799196;77;395024;-76
2021/01/11 23:28:38;;;;;;;2.83;1.83;;;;;;;-0.55;100.00;99095.41;3799315;77;383573;-76
2021/01/11 23:34:01;;;;;;;5.23;3.00;;;;;;;-0.57;100.00;99096.30;3798944;77;396370;-76
2021/01/11 23:39:22;;;;;;;1.07;0.87;;;;;;;-0.54;100.00;99080.22;3799411;77;392092;-76
2021/01/11 23:44:43;;;;;;;3.90;3.10;;;;;;;-0.49;100.00;99061.67;3798888;77;396054;-76
2021/01/11 23:50:06;;;;;;;1.43;1.33;;;;;;;-0.51;100.00;99063.37;3799028;77;391914;-76
2021/01/11 23:55:29;;;;;;;3.33;2.10;;;;;;;-0.43;100.00;99063.87;3798652;77;389825;-76
